Rawlins Municipal Harvey Field Rawlins US
ICAO: KRWL
IATA: RWL
Category: Medium
Scheduled Services: No

Elevation: 6813 ft
TransAlt. 18000 ft.

Airport Communications:
ASOS:118.525
DENVER CNTR:132.1
CASPER RDO:122.2
CTAF/UNICOM:123

KRWL Zoom In..

If you have problems with the map follow the link
https://www.worldairports.se/pages/airport.php?
ICAO=KRWL

Runways:

(A) RW 04 length 7008 ft width 100 ft
---- / hdg 41

(B) RW 10 length 4322 ft width 60 ft
---- / hdg 102

(C) RW 22 length 7008 ft width 100 ft
---- / hdg 221

(D) RW 28 length 4322 ft width 60 ft
---- / hdg 282

Location; KRWL
Day. 13 / Time. 00.31 Zulu
* Altimeter: 29.98
* Temperature: 01° c. 33.8°f.
* Wind from: 240° Speed 24 kn with Gusts up to 30 kn.
Dewpoint: -01° c.
Visibility: 1 m.
Clouds: Scattered 800 ft.
Clouds: Overcast 1500 ft.
Conditions: Light Snow.Conditions: Mist.

KRWL 130031Z AUTO 24024G30KT 1 3/4SM -SN BR SCT008 OVC015 01/M01 A2998 RMK AO2 PK WND 23033/0020 P0000 T00061011


Wind From 240°
Speed 24 kn.

 
 
jpsmedia worldairports.se 2019   terms of use